sensor_id;sensor_type;location;lat;lon;timestamp;P1;durP1;ratioP1;P2;durP2;ratioP2
57826;SDS011;43656;57.746;11.780;2023-12-22T00:01:52;4.53;;;1.35;;
57826;SDS011;43656;57.746;11.780;2023-12-22T00:04:18;6.35;;;1.85;;
57826;SDS011;43656;57.746;11.780;2023-12-22T00:06:43;6.40;;;1.38;;
57826;SDS011;43656;57.746;11.780;2023-12-22T00:09:08;6.63;;;1.50;;
57826;SDS011;43656;57.746;11.780;2023-12-22T00:11:34;6.43;;;1.63;;
57826;SDS011;43656;57.746;11.780;2023-12-22T00:13:59;6.82;;;1.92;;
57826;SDS011;43656;57.746;11.780;2023-12-22T00:16:24;6.38;;;1.67;;
57826;SDS011;43656;57.746;11.780;2023-12-22T00:18:50;6.70;;;1.83;;
57826;SDS011;43656;57.746;11.780;2023-12-22T00:21:15;5.05;;;1.00;;
57826;SDS011;43656;57.746;11.780;2023-12-22T00:23:40;6.70;;;1.23;;
57826;SDS011;43656;57.746;11.780;2023-12-22T00:26:06;6.20;;;1.77;;
57826;SDS011;43656;57.746;11.780;2023-12-22T00:28:31;3.10;;;1.23;;
57826;SDS011;43656;57.746;11.780;2023-12-22T00:30:57;4.70;;;1.20;;
57826;SDS011;43656;57.746;11.780;2023-12-22T00:33:23;8.73;;;1.90;;
57826;SDS011;43656;57.746;11.780;2023-12-22T00:35:48;7.75;;;1.65;;
57826;SDS011;43656;57.746;11.780;2023-12-22T00:38:14;3.10;;;1.50;;
57826;SDS011;43656;57.746;11.780;2023-12-22T00:40:39;5.93;;;1.60;;
57826;SDS011;43656;57.746;11.780;2023-12-22T00:43:04;6.72;;;1.60;;
57826;SDS011;43656;57.746;11.780;2023-12-22T00:45:30;4.78;;;1.25;;
57826;SDS011;43656;57.746;11.780;2023-12-22T00:47:55;2.03;;;0.80;;
57826;SDS011;43656;57.746;11.780;2023-12-22T00:50:20;5.93;;;1.27;;
57826;SDS011;43656;57.746;11.780;2023-12-22T00:52:46;4.75;;;1.30;;
57826;SDS011;43656;57.746;11.780;2023-12-22T00:55:11;5.82;;;1.38;;
57826;SDS011;43656;57.746;11.780;2023-12-22T00:57:36;3.75;;;1.73;;
57826;SDS011;43656;57.746;11.780;2023-12-22T01:00:02;7.15;;;1.48;;
57826;SDS011;43656;57.746;11.780;2023-12-22T01:02:29;6.03;;;1.38;;
57826;SDS011;43656;57.746;11.780;2023-12-22T01:04:55;3.55;;;1.33;;
57826;SDS011;43656;57.746;11.780;2023-12-22T01:07:20;6.57;;;1.35;;
57826;SDS011;43656;57.746;11.780;2023-12-22T01:09:46;3.45;;;1.20;;
57826;SDS011;43656;57.746;11.780;2023-12-22T01:12:11;5.13;;;1.30;;
57826;SDS011;43656;57.746;11.780;2023-12-22T01:14:36;2.08;;;0.70;;
57826;SDS011;43656;57.746;11.780;2023-12-22T01:17:02;3.33;;;1.27;;
57826;SDS011;43656;57.746;11.780;2023-12-22T01:19:27;1.67;;;0.90;;
57826;SDS011;43656;57.746;11.780;2023-12-22T01:21:53;11.70;;;0.90;;
57826;SDS011;43656;57.746;11.780;2023-12-22T01:24:18;3.17;;;1.30;;
57826;SDS011;43656;57.746;11.780;2023-12-22T01:26:44;3.63;;;0.85;;
57826;SDS011;43656;57.746;11.780;2023-12-22T01:29:09;3.13;;;0.98;;
57826;SDS011;43656;57.746;11.780;2023-12-22T01:31:35;4.35;;;1.30;;
57826;SDS011;43656;57.746;11.780;2023-12-22T01:34:00;2.95;;;1.08;;
57826;SDS011;43656;57.746;11.780;2023-12-22T01:36:25;5.20;;;1.30;;
57826;SDS011;43656;57.746;11.780;2023-12-22T01:38:51;3.50;;;0.93;;
57826;SDS011;43656;57.746;11.780;2023-12-22T01:41:16;5.80;;;1.77;;
57826;SDS011;43656;57.746;11.780;2023-12-22T01:43:44;2.53;;;0.88;;
57826;SDS011;43656;57.746;11.780;2023-12-22T01:46:11;2.75;;;0.70;;
57826;SDS011;43656;57.746;11.780;2023-12-22T01:48:37;3.83;;;1.02;;
57826;SDS011;43656;57.746;11.780;2023-12-22T01:51:04;2.47;;;0.90;;
57826;SDS011;43656;57.746;11.780;2023-12-22T01:53:30;1.50;;;0.63;;
57826;SDS011;43656;57.746;11.780;2023-12-22T01:55:56;3.20;;;1.08;;
57826;SDS011;43656;57.746;11.780;2023-12-22T01:58:24;4.05;;;0.95;;
57826;SDS011;43656;57.746;11.780;2023-12-22T02:00:54;4.05;;;0.80;;
57826;SDS011;43656;57.746;11.780;2023-12-22T02:03:20;3.17;;;1.05;;
57826;SDS011;43656;57.746;11.780;2023-12-22T02:05:46;2.53;;;1.17;;
57826;SDS011;43656;57.746;11.780;2023-12-22T02:08:13;2.70;;;1.20;;
57826;SDS011;43656;57.746;11.780;2023-12-22T02:10:42;3.42;;;1.00;;
57826;SDS011;43656;57.746;11.780;2023-12-22T02:13:08;4.65;;;0.85;;
57826;SDS011;43656;57.746;11.780;2023-12-22T02:15:34;3.03;;;0.98;;
57826;SDS011;43656;57.746;11.780;2023-12-22T02:18:10;6.07;;;1.08;;
57826;SDS011;43656;57.746;11.780;2023-12-22T02:20:39;3.80;;;0.98;;
57826;SDS011;43656;57.746;11.780;2023-12-22T02:23:05;5.15;;;1.13;;
57826;SDS011;43656;57.746;11.780;2023-12-22T02:25:30;6.20;;;1.40;;
57826;SDS011;43656;57.746;11.780;2023-12-22T02:33:01;5.50;;;0.93;;
57826;SDS011;43656;57.746;11.780;2023-12-22T02:35:30;3.53;;;0.88;;
57826;SDS011;43656;57.746;11.780;2023-12-22T02:38:00;3.53;;;1.00;;
57826;SDS011;43656;57.746;11.780;2023-12-22T02:40:27;4.90;;;1.10;;
57826;SDS011;43656;57.746;11.780;2023-12-22T02:42:53;3.80;;;1.20;;
57826;SDS011;43656;57.746;11.780;2023-12-22T02:45:19;3.88;;;1.15;;
57826;SDS011;43656;57.746;11.780;2023-12-22T02:47:45;3.65;;;1.33;;
57826;SDS011;43656;57.746;11.780;2023-12-22T02:50:11;5.45;;;0.90;;
57826;SDS011;43656;57.746;11.780;2023-12-22T02:52:39;4.22;;;1.75;;
57826;SDS011;43656;57.746;11.780;2023-12-22T02:55:04;3.25;;;0.90;;
57826;SDS011;43656;57.746;11.780;2023-12-22T02:57:30;3.83;;;1.17;;
57826;SDS011;43656;57.746;11.780;2023-12-22T02:59:56;4.72;;;1.48;;
57826;SDS011;43656;57.746;11.780;2023-12-22T03:02:22;2.72;;;1.23;;
57826;SDS011;43656;57.746;11.780;2023-12-22T03:04:47;5.70;;;1.20;;
57826;SDS011;43656;57.746;11.780;2023-12-22T03:07:13;5.75;;;1.23;;
57826;SDS011;43656;57.746;11.780;2023-12-22T03:09:39;6.13;;;1.67;;
57826;SDS011;43656;57.746;11.780;2023-12-22T03:12:05;4.78;;;1.17;;
57826;SDS011;43656;57.746;11.780;2023-12-22T03:14:31;4.22;;;1.02;;
57826;SDS011;43656;57.746;11.780;2023-12-22T03:17:00;2.95;;;1.00;;
57826;SDS011;43656;57.746;11.780;2023-12-22T03:19:26;3.75;;;1.30;;
57826;SDS011;43656;57.746;11.780;2023-12-22T03:21:52;5.97;;;1.60;;
57826;SDS011;43656;57.746;11.780;2023-12-22T03:24:17;5.63;;;2.03;;
57826;SDS011;43656;57.746;11.780;2023-12-22T03:26:47;8.10;;;1.60;;
57826;SDS011;43656;57.746;11.780;2023-12-22T03:29:16;3.53;;;1.48;;
57826;SDS011;43656;57.746;11.780;2023-12-22T03:31:42;5.43;;;1.38;;
57826;SDS011;43656;57.746;11.780;2023-12-22T03:34:07;6.60;;;1.70;;
57826;SDS011;43656;57.746;11.780;2023-12-22T03:36:33;3.75;;;1.30;;
57826;SDS011;43656;57.746;11.780;2023-12-22T03:38:58;4.93;;;1.30;;
57826;SDS011;43656;57.746;11.780;2023-12-22T03:41:24;3.10;;;1.45;;
57826;SDS011;43656;57.746;11.780;2023-12-22T03:43:49;4.25;;;1.00;;
57826;SDS011;43656;57.746;11.780;2023-12-22T03:46:14;6.20;;;1.70;;
57826;SDS011;43656;57.746;11.780;2023-12-22T03:48:40;7.93;;;1.33;;
57826;SDS011;43656;57.746;11.780;2023-12-22T03:51:05;3.17;;;1.27;;
57826;SDS011;43656;57.746;11.780;2023-12-22T03:53:31;2.47;;;1.30;;
57826;SDS011;43656;57.746;11.780;2023-12-22T03:55:56;3.58;;;1.30;;
57826;SDS011;43656;57.746;11.780;2023-12-22T03:58:22;6.00;;;1.15;;
57826;SDS011;43656;57.746;11.780;2023-12-22T04:00:47;4.72;;;1.45;;
57826;SDS011;43656;57.746;11.780;2023-12-22T04:03:13;5.45;;;1.17;;
57826;SDS011;43656;57.746;11.780;2023-12-22T04:05:38;3.78;;;1.23;;
57826;SDS011;43656;57.746;11.780;2023-12-22T04:08:04;2.58;;;0.90;;
57826;SDS011;43656;57.746;11.780;2023-12-22T04:10:30;3.83;;;1.38;;
57826;SDS011;43656;57.746;11.780;2023-12-22T04:12:55;6.75;;;1.80;;
57826;SDS011;43656;57.746;11.780;2023-12-22T04:15:20;6.70;;;1.55;;
57826;SDS011;43656;57.746;11.780;2023-12-22T04:17:46;5.15;;;1.25;;
57826;SDS011;43656;57.746;11.780;2023-12-22T04:20:11;8.27;;;1.17;;
57826;SDS011;43656;57.746;11.780;2023-12-22T04:22:38;4.13;;;1.40;;
57826;SDS011;43656;57.746;11.780;2023-12-22T04:25:04;3.55;;;1.00;;
57826;SDS011;43656;57.746;11.780;2023-12-22T04:27:30;4.00;;;1.42;;
57826;SDS011;43656;57.746;11.780;2023-12-22T04:29:56;3.92;;;1.42;;
57826;SDS011;43656;57.746;11.780;2023-12-22T04:32:21;2.58;;;1.20;;
57826;SDS011;43656;57.746;11.780;2023-12-22T04:34:47;5.88;;;1.88;;
57826;SDS011;43656;57.746;11.780;2023-12-22T04:37:12;3.97;;;1.08;;
57826;SDS011;43656;57.746;11.780;2023-12-22T04:39:38;2.25;;;1.40;;
57826;SDS011;43656;57.746;11.780;2023-12-22T04:42:04;3.17;;;1.10;;
57826;SDS011;43656;57.746;11.780;2023-12-22T04:44:29;4.38;;;2.15;;
57826;SDS011;43656;57.746;11.780;2023-12-22T04:46:54;3.45;;;1.20;;
57826;SDS011;43656;57.746;11.780;2023-12-22T04:49:20;4.00;;;1.27;;
57826;SDS011;43656;57.746;11.780;2023-12-22T04:51:45;2.53;;;0.80;;
57826;SDS011;43656;57.746;11.780;2023-12-22T04:54:11;5.38;;;1.85;;
57826;SDS011;43656;57.746;11.780;2023-12-22T04:56:36;2.28;;;1.20;;
57826;SDS011;43656;57.746;11.780;2023-12-22T04:59:01;5.90;;;1.35;;
57826;SDS011;43656;57.746;11.780;2023-12-22T05:01:27;3.40;;;0.95;;
57826;SDS011;43656;57.746;11.780;2023-12-22T05:03:52;6.07;;;1.40;;
57826;SDS011;43656;57.746;11.780;2023-12-22T05:06:19;3.38;;;1.40;;
57826;SDS011;43656;57.746;11.780;2023-12-22T05:08:44;2.35;;;0.88;;
57826;SDS011;43656;57.746;11.780;2023-12-22T05:11:10;2.33;;;0.90;;
57826;SDS011;43656;57.746;11.780;2023-12-22T05:13:35;3.70;;;1.13;;
57826;SDS011;43656;57.746;11.780;2023-12-22T05:16:01;4.13;;;1.27;;
57826;SDS011;43656;57.746;11.780;2023-12-22T05:18:27;3.40;;;1.58;;
57826;SDS011;43656;57.746;11.780;2023-12-22T05:20:52;2.55;;;0.77;;
57826;SDS011;43656;57.746;11.780;2023-12-22T05:23:18;2.40;;;0.98;;
57826;SDS011;43656;57.746;11.780;2023-12-22T05:25:45;3.70;;;1.10;;
57826;SDS011;43656;57.746;11.780;2023-12-22T05:28:10;3.97;;;1.35;;
57826;SDS011;43656;57.746;11.780;2023-12-22T05:30:35;3.50;;;0.77;;
57826;SDS011;43656;57.746;11.780;2023-12-22T05:33:01;3.42;;;1.00;;
57826;SDS011;43656;57.746;11.780;2023-12-22T05:35:26;2.80;;;1.17;;
57826;SDS011;43656;57.746;11.780;2023-12-22T05:37:52;2.97;;;1.13;;
57826;SDS011;43656;57.746;11.780;2023-12-22T05:40:17;4.45;;;1.00;;
57826;SDS011;43656;57.746;11.780;2023-12-22T05:42:42;5.70;;;1.90;;
57826;SDS011;43656;57.746;11.780;2023-12-22T05:45:08;2.65;;;1.10;;
57826;SDS011;43656;57.746;11.780;2023-12-22T05:47:36;4.13;;;1.52;;
57826;SDS011;43656;57.746;11.780;2023-12-22T05:50:01;1.85;;;1.00;;
57826;SDS011;43656;57.746;11.780;2023-12-22T05:52:27;3.60;;;1.17;;
57826;SDS011;43656;57.746;11.780;2023-12-22T05:54:52;2.45;;;1.40;;
57826;SDS011;43656;57.746;11.780;2023-12-22T05:57:19;6.55;;;1.10;;
57826;SDS011;43656;57.746;11.780;2023-12-22T05:59:44;2.47;;;1.02;;
57826;SDS011;43656;57.746;11.780;2023-12-22T06:02:10;3.80;;;1.33;;
57826;SDS011;43656;57.746;11.780;2023-12-22T06:04:35;4.28;;;1.15;;
57826;SDS011;43656;57.746;11.780;2023-12-22T06:07:00;3.47;;;1.40;;
57826;SDS011;43656;57.746;11.780;2023-12-22T06:09:26;3.33;;;1.27;;
57826;SDS011;43656;57.746;11.780;2023-12-22T06:11:51;1.75;;;1.02;;
57826;SDS011;43656;57.746;11.780;2023-12-22T06:14:17;4.40;;;1.50;;
57826;SDS011;43656;57.746;11.780;2023-12-22T06:16:43;3.45;;;1.48;;
57826;SDS011;43656;57.746;11.780;2023-12-22T06:19:08;4.03;;;1.73;;
57826;SDS011;43656;57.746;11.780;2023-12-22T06:21:37;3.17;;;1.40;;
57826;SDS011;43656;57.746;11.780;2023-12-22T06:24:03;10.48;;;1.23;;
57826;SDS011;43656;57.746;11.780;2023-12-22T06:26:28;3.95;;;1.65;;
57826;SDS011;43656;57.746;11.780;2023-12-22T06:28:53;2.70;;;1.25;;
57826;SDS011;43656;57.746;11.780;2023-12-22T06:31:20;1.77;;;1.00;;
57826;SDS011;43656;57.746;11.780;2023-12-22T06:33:50;1.73;;;1.00;;
57826;SDS011;43656;57.746;11.780;2023-12-22T06:36:20;5.43;;;1.60;;
57826;SDS011;43656;57.746;11.780;2023-12-22T06:38:47;2.38;;;1.27;;
57826;SDS011;43656;57.746;11.780;2023-12-22T06:41:22;2.08;;;1.42;;
57826;SDS011;43656;57.746;11.780;2023-12-22T06:43:49;2.30;;;0.90;;
57826;SDS011;43656;57.746;11.780;2023-12-22T06:46:19;2.75;;;1.20;;
57826;SDS011;43656;57.746;11.780;2023-12-22T06:48:47;2.83;;;1.45;;
57826;SDS011;43656;57.746;11.780;2023-12-22T06:53:51;2.20;;;1.13;;
57826;SDS011;43656;57.746;11.780;2023-12-22T06:56:18;1.33;;;1.00;;
57826;SDS011;43656;57.746;11.780;2023-12-22T06:58:45;3.45;;;1.70;;
57826;SDS011;43656;57.746;11.780;2023-12-22T07:01:17;2.40;;;1.33;;
57826;SDS011;43656;57.746;11.780;2023-12-22T07:03:47;4.57;;;1.50;;
57826;SDS011;43656;57.746;11.780;2023-12-22T07:06:14;2.45;;;1.42;;
57826;SDS011;43656;57.746;11.780;2023-12-22T07:08:41;2.92;;;1.52;;
57826;SDS011;43656;57.746;11.780;2023-12-22T07:11:07;3.38;;;1.65;;
57826;SDS011;43656;57.746;11.780;2023-12-22T07:13:34;2.58;;;1.25;;
57826;SDS011;43656;57.746;11.780;2023-12-22T07:15:59;3.78;;;1.35;;
57826;SDS011;43656;57.746;11.780;2023-12-22T07:18:27;2.88;;;1.63;;
57826;SDS011;43656;57.746;11.780;2023-12-22T07:20:55;4.03;;;1.33;;
57826;SDS011;43656;57.746;11.780;2023-12-22T07:23:24;2.83;;;1.20;;
57826;SDS011;43656;57.746;11.780;2023-12-22T07:25:49;2.50;;;1.25;;
57826;SDS011;43656;57.746;11.780;2023-12-22T07:28:15;2.70;;;1.40;;
57826;SDS011;43656;57.746;11.780;2023-12-22T07:30:40;4.53;;;1.42;;
57826;SDS011;43656;57.746;11.780;2023-12-22T07:33:06;3.95;;;1.90;;
57826;SDS011;43656;57.746;11.780;2023-12-22T07:35:31;3.65;;;1.67;;
57826;SDS011;43656;57.746;11.780;2023-12-22T07:37:57;2.88;;;1.35;;
57826;SDS011;43656;57.746;11.780;2023-12-22T07:40:22;3.55;;;1.67;;
57826;SDS011;43656;57.746;11.780;2023-12-22T07:42:48;4.05;;;1.77;;
57826;SDS011;43656;57.746;11.780;2023-12-22T07:45:13;3.88;;;1.88;;
57826;SDS011;43656;57.746;11.780;2023-12-22T07:47:38;3.35;;;1.25;;
57826;SDS011;43656;57.746;11.780;2023-12-22T07:50:04;4.75;;;2.08;;
57826;SDS011;43656;57.746;11.780;2023-12-22T07:52:33;4.38;;;1.25;;
57826;SDS011;43656;57.746;11.780;2023-12-22T07:54:58;3.65;;;1.45;;
57826;SDS011;43656;57.746;11.780;2023-12-22T07:57:24;3.15;;;1.80;;
57826;SDS011;43656;57.746;11.780;2023-12-22T07:59:49;3.78;;;2.00;;
57826;SDS011;43656;57.746;11.780;2023-12-22T08:02:15;4.70;;;2.17;;
57826;SDS011;43656;57.746;11.780;2023-12-22T08:04:40;2.70;;;1.73;;
57826;SDS011;43656;57.746;11.780;2023-12-22T08:07:06;3.80;;;2.13;;
57826;SDS011;43656;57.746;11.780;2023-12-22T08:09:31;5.50;;;2.28;;
57826;SDS011;43656;57.746;11.780;2023-12-22T08:11:57;3.75;;;1.70;;
57826;SDS011;43656;57.746;11.780;2023-12-22T08:14:23;3.40;;;1.85;;
57826;SDS011;43656;57.746;11.780;2023-12-22T08:16:49;4.03;;;1.80;;
57826;SDS011;43656;57.746;11.780;2023-12-22T08:19:14;4.05;;;1.98;;
57826;SDS011;43656;57.746;11.780;2023-12-22T08:21:39;4.10;;;1.85;;
57826;SDS011;43656;57.746;11.780;2023-12-22T08:24:09;4.88;;;2.50;;
57826;SDS011;43656;57.746;11.780;2023-12-22T08:26:35;3.78;;;1.95;;
57826;SDS011;43656;57.746;11.780;2023-12-22T08:29:01;4.50;;;2.38;;
57826;SDS011;43656;57.746;11.780;2023-12-22T08:31:26;6.53;;;2.35;;
57826;SDS011;43656;57.746;11.780;2023-12-22T08:33:51;4.47;;;2.17;;
57826;SDS011;43656;57.746;11.780;2023-12-22T08:36:17;4.38;;;2.33;;
57826;SDS011;43656;57.746;11.780;2023-12-22T08:38:42;4.20;;;2.28;;
57826;SDS011;43656;57.746;11.780;2023-12-22T08:41:07;3.65;;;1.90;;
57826;SDS011;43656;57.746;11.780;2023-12-22T08:43:33;4.80;;;2.53;;
57826;SDS011;43656;57.746;11.780;2023-12-22T08:45:59;3.55;;;2.17;;
57826;SDS011;43656;57.746;11.780;2023-12-22T08:48:25;4.85;;;1.75;;
57826;SDS011;43656;57.746;11.780;2023-12-22T08:50:50;4.53;;;2.05;;
57826;SDS011;43656;57.746;11.780;2023-12-22T08:53:15;5.15;;;1.90;;
57826;SDS011;43656;57.746;11.780;2023-12-22T08:55:41;5.25;;;2.42;;
57826;SDS011;43656;57.746;11.780;2023-12-22T08:58:06;4.90;;;2.17;;
57826;SDS011;43656;57.746;11.780;2023-12-22T09:00:31;5.13;;;2.03;;
57826;SDS011;43656;57.746;11.780;2023-12-22T09:02:57;4.93;;;2.03;;
57826;SDS011;43656;57.746;11.780;2023-12-22T09:05:22;4.75;;;2.03;;
57826;SDS011;43656;57.746;11.780;2023-12-22T09:07:48;6.82;;;2.42;;
57826;SDS011;43656;57.746;11.780;2023-12-22T09:10:13;2.33;;;1.33;;
57826;SDS011;43656;57.746;11.780;2023-12-22T09:12:38;4.85;;;2.08;;
57826;SDS011;43656;57.746;11.780;2023-12-22T09:15:04;3.88;;;1.83;;
57826;SDS011;43656;57.746;11.780;2023-12-22T09:17:29;3.78;;;1.80;;
57826;SDS011;43656;57.746;11.780;2023-12-22T09:19:55;3.08;;;1.48;;
57826;SDS011;43656;57.746;11.780;2023-12-22T09:22:20;5.20;;;1.80;;
57826;SDS011;43656;57.746;11.780;2023-12-22T09:24:46;4.30;;;1.90;;
57826;SDS011;43656;57.746;11.780;2023-12-22T09:27:12;6.38;;;1.92;;
57826;SDS011;43656;57.746;11.780;2023-12-22T09:29:38;2.33;;;1.00;;
57826;SDS011;43656;57.746;11.780;2023-12-22T09:32:03;4.05;;;1.50;;
57826;SDS011;43656;57.746;11.780;2023-12-22T09:34:29;5.15;;;1.25;;
57826;SDS011;43656;57.746;11.780;2023-12-22T09:36:54;13.50;;;1.98;;
57826;SDS011;43656;57.746;11.780;2023-12-22T09:39:20;5.18;;;1.83;;
57826;SDS011;43656;57.746;11.780;2023-12-22T09:41:47;2.83;;;1.60;;
57826;SDS011;43656;57.746;11.780;2023-12-22T09:44:18;4.18;;;1.90;;
57826;SDS011;43656;57.746;11.780;2023-12-22T09:46:46;3.17;;;1.70;;
57826;SDS011;43656;57.746;11.780;2023-12-22T09:49:14;7.18;;;1.75;;
57826;SDS011;43656;57.746;11.780;2023-12-22T09:51:42;3.75;;;1.50;;
57826;SDS011;43656;57.746;11.780;2023-12-22T09:54:10;5.03;;;1.48;;
57826;SDS011;43656;57.746;11.780;2023-12-22T09:56:37;3.72;;;1.70;;
57826;SDS011;43656;57.746;11.780;2023-12-22T09:59:07;7.72;;;1.83;;
57826;SDS011;43656;57.746;11.780;2023-12-22T10:01:38;3.97;;;1.33;;
57826;SDS011;43656;57.746;11.780;2023-12-22T10:04:10;3.70;;;1.88;;
57826;SDS011;43656;57.746;11.780;2023-12-22T10:06:36;4.60;;;1.77;;
57826;SDS011;43656;57.746;11.780;2023-12-22T10:09:02;3.67;;;1.63;;
57826;SDS011;43656;57.746;11.780;2023-12-22T10:11:31;3.55;;;1.63;;
57826;SDS011;43656;57.746;11.780;2023-12-22T10:13:59;4.35;;;1.75;;
57826;SDS011;43656;57.746;11.780;2023-12-22T10:16:25;4.63;;;1.77;;
57826;SDS011;43656;57.746;11.780;2023-12-22T10:18:51;6.20;;;1.83;;
57826;SDS011;43656;57.746;11.780;2023-12-22T10:21:16;4.60;;;1.63;;
57826;SDS011;43656;57.746;11.780;2023-12-22T10:23:42;5.13;;;2.45;;
57826;SDS011;43656;57.746;11.780;2023-12-22T10:26:10;3.60;;;1.50;;
57826;SDS011;43656;57.746;11.780;2023-12-22T10:28:36;5.07;;;1.95;;
57826;SDS011;43656;57.746;11.780;2023-12-22T10:31:02;3.55;;;1.85;;
57826;SDS011;43656;57.746;11.780;2023-12-22T10:33:31;5.22;;;2.13;;
57826;SDS011;43656;57.746;11.780;2023-12-22T10:35:58;3.65;;;1.98;;
57826;SDS011;43656;57.746;11.780;2023-12-22T10:38:33;3.65;;;1.83;;
57826;SDS011;43656;57.746;11.780;2023-12-22T10:41:00;3.72;;;1.95;;
57826;SDS011;43656;57.746;11.780;2023-12-22T10:43:26;2.47;;;1.80;;
57826;SDS011;43656;57.746;11.780;2023-12-22T10:45:52;3.45;;;1.58;;
57826;SDS011;43656;57.746;11.780;2023-12-22T10:48:17;2.35;;;1.17;;
57826;SDS011;43656;57.746;11.780;2023-12-22T10:50:43;2.65;;;1.60;;
57826;SDS011;43656;57.746;11.780;2023-12-22T10:53:10;3.00;;;1.70;;
57826;SDS011;43656;57.746;11.780;2023-12-22T10:55:36;2.72;;;1.33;;
57826;SDS011;43656;57.746;11.780;2023-12-22T10:58:05;4.20;;;2.05;;
57826;SDS011;43656;57.746;11.780;2023-12-22T11:00:32;3.50;;;1.98;;
57826;SDS011;43656;57.746;11.780;2023-12-22T11:02:59;1.27;;;0.88;;
57826;SDS011;43656;57.746;11.780;2023-12-22T11:05:30;2.92;;;1.48;;
57826;SDS011;43656;57.746;11.780;2023-12-22T11:07:58;3.22;;;1.55;;
57826;SDS011;43656;57.746;11.780;2023-12-22T11:10:28;2.15;;;1.27;;
57826;SDS011;43656;57.746;11.780;2023-12-22T11:12:55;3.20;;;1.75;;
57826;SDS011;43656;57.746;11.780;2023-12-22T11:15:22;3.58;;;1.83;;
57826;SDS011;43656;57.746;11.780;2023-12-22T11:17:49;2.38;;;1.42;;
57826;SDS011;43656;57.746;11.780;2023-12-22T11:20:16;3.47;;;1.85;;
57826;SDS011;43656;57.746;11.780;2023-12-22T11:22:42;2.60;;;1.50;;
57826;SDS011;43656;57.746;11.780;2023-12-22T11:25:09;1.67;;;1.05;;
57826;SDS011;43656;57.746;11.780;2023-12-22T11:27:36;1.95;;;0.90;;
57826;SDS011;43656;57.746;11.780;2023-12-22T11:30:02;3.33;;;1.25;;
57826;SDS011;43656;57.746;11.780;2023-12-22T11:32:33;1.25;;;0.68;;
57826;SDS011;43656;57.746;11.780;2023-12-22T11:34:59;1.70;;;0.95;;
57826;SDS011;43656;57.746;11.780;2023-12-22T11:37:25;1.60;;;0.70;;
57826;SDS011;43656;57.746;11.780;2023-12-22T11:39:50;4.15;;;1.00;;
57826;SDS011;43656;57.746;11.780;2023-12-22T11:42:18;2.15;;;0.90;;
57826;SDS011;43656;57.746;11.780;2023-12-22T11:44:46;1.20;;;0.80;;
57826;SDS011;43656;57.746;11.780;2023-12-22T11:47:12;1.02;;;0.90;;
57826;SDS011;43656;57.746;11.780;2023-12-22T11:49:40;0.65;;;0.50;;
57826;SDS011;43656;57.746;11.780;2023-12-22T11:52:12;1.00;;;0.75;;
57826;SDS011;43656;57.746;11.780;2023-12-22T11:57:37;0.73;;;0.40;;
57826;SDS011;43656;57.746;11.780;2023-12-22T12:00:07;1.60;;;0.82;;
57826;SDS011;43656;57.746;11.780;2023-12-22T12:02:36;0.95;;;0.80;;
57826;SDS011;43656;57.746;11.780;2023-12-22T12:05:04;1.20;;;0.80;;
57826;SDS011;43656;57.746;11.780;2023-12-22T12:10:35;0.90;;;0.60;;
57826;SDS011;43656;57.746;11.780;2023-12-22T12:15:31;0.43;;;0.30;;
57826;SDS011;43656;57.746;11.780;2023-12-22T12:17:58;1.10;;;0.60;;
57826;SDS011;43656;57.746;11.780;2023-12-22T12:20:25;1.00;;;0.60;;
57826;SDS011;43656;57.746;11.780;2023-12-22T12:22:50;1.73;;;0.50;;
57826;SDS011;43656;57.746;11.780;2023-12-22T12:25:16;1.25;;;0.68;;
57826;SDS011;43656;57.746;11.780;2023-12-22T12:27:42;2.28;;;0.80;;
57826;SDS011;43656;57.746;11.780;2023-12-22T12:30:11;1.33;;;0.90;;
57826;SDS011;43656;57.746;11.780;2023-12-22T12:32:40;1.17;;;0.85;;
57826;SDS011;43656;57.746;11.780;2023-12-22T12:35:08;1.45;;;1.00;;
57826;SDS011;43656;57.746;11.780;2023-12-22T12:37:33;2.03;;;0.80;;
57826;SDS011;43656;57.746;11.780;2023-12-22T12:40:00;2.00;;;1.20;;
57826;SDS011;43656;57.746;11.780;2023-12-22T12:42:29;2.67;;;1.38;;
57826;SDS011;43656;57.746;11.780;2023-12-22T12:44:58;3.38;;;1.10;;
57826;SDS011;43656;57.746;11.780;2023-12-22T12:47:24;1.88;;;1.05;;
57826;SDS011;43656;57.746;11.780;2023-12-22T12:49:56;2.35;;;1.08;;
57826;SDS011;43656;57.746;11.780;2023-12-22T12:52:30;3.10;;;1.17;;
57826;SDS011;43656;57.746;11.780;2023-12-22T12:54:56;2.15;;;1.38;;
57826;SDS011;43656;57.746;11.780;2023-12-22T12:57:23;1.60;;;1.40;;
57826;SDS011;43656;57.746;11.780;2023-12-22T12:59:49;2.25;;;1.45;;
57826;SDS011;43656;57.746;11.780;2023-12-22T13:02:16;2.03;;;1.42;;
57826;SDS011;43656;57.746;11.780;2023-12-22T13:04:42;1.67;;;1.52;;
57826;SDS011;43656;57.746;11.780;2023-12-22T13:07:08;1.30;;;1.10;;
57826;SDS011;43656;57.746;11.780;2023-12-22T13:09:35;1.92;;;1.40;;
57826;SDS011;43656;57.746;11.780;2023-12-22T13:12:00;2.28;;;1.55;;
57826;SDS011;43656;57.746;11.780;2023-12-22T13:14:26;1.85;;;1.48;;
57826;SDS011;43656;57.746;11.780;2023-12-22T13:16:55;2.17;;;1.50;;
57826;SDS011;43656;57.746;11.780;2023-12-22T13:19:23;2.33;;;1.40;;
57826;SDS011;43656;57.746;11.780;2023-12-22T13:21:50;1.70;;;1.33;;
57826;SDS011;43656;57.746;11.780;2023-12-22T13:24:16;1.85;;;1.25;;
57826;SDS011;43656;57.746;11.780;2023-12-22T13:26:43;1.92;;;1.50;;
57826;SDS011;43656;57.746;11.780;2023-12-22T13:29:09;2.15;;;0.98;;
57826;SDS011;43656;57.746;11.780;2023-12-22T13:31:36;1.67;;;0.95;;
57826;SDS011;43656;57.746;11.780;2023-12-22T13:34:07;2.67;;;1.40;;
57826;SDS011;43656;57.746;11.780;2023-12-22T13:36:34;1.40;;;1.02;;
57826;SDS011;43656;57.746;11.780;2023-12-22T13:39:05;1.08;;;0.98;;
57826;SDS011;43656;57.746;11.780;2023-12-22T13:41:32;1.63;;;1.13;;
57826;SDS011;43656;57.746;11.780;2023-12-22T13:44:01;2.47;;;0.90;;
57826;SDS011;43656;57.746;11.780;2023-12-22T13:46:29;1.65;;;1.27;;
57826;SDS011;43656;57.746;11.780;2023-12-22T13:48:55;1.88;;;1.02;;
57826;SDS011;43656;57.746;11.780;2023-12-22T13:51:22;1.08;;;0.98;;
57826;SDS011;43656;57.746;11.780;2023-12-22T13:53:48;1.35;;;0.98;;
57826;SDS011;43656;57.746;11.780;2023-12-22T13:56:13;1.33;;;0.93;;
57826;SDS011;43656;57.746;11.780;2023-12-22T13:58:48;2.17;;;1.40;;
57826;SDS011;43656;57.746;11.780;2023-12-22T14:01:14;1.65;;;1.55;;
57826;SDS011;43656;57.746;11.780;2023-12-22T14:03:42;1.50;;;1.13;;
57826;SDS011;43656;57.746;11.780;2023-12-22T14:06:09;1.42;;;1.33;;
57826;SDS011;43656;57.746;11.780;2023-12-22T14:08:37;2.28;;;1.42;;
57826;SDS011;43656;57.746;11.780;2023-12-22T14:11:06;1.70;;;1.10;;
57826;SDS011;43656;57.746;11.780;2023-12-22T14:13:31;2.25;;;1.60;;
57826;SDS011;43656;57.746;11.780;2023-12-22T14:15:57;1.58;;;1.05;;
57826;SDS011;43656;57.746;11.780;2023-12-22T14:18:22;1.48;;;1.20;;
57826;SDS011;43656;57.746;11.780;2023-12-22T14:20:47;1.42;;;1.08;;
57826;SDS011;43656;57.746;11.780;2023-12-22T14:23:13;2.08;;;1.15;;
57826;SDS011;43656;57.746;11.780;2023-12-22T14:25:42;1.70;;;1.20;;
57826;SDS011;43656;57.746;11.780;2023-12-22T14:28:07;1.70;;;1.13;;
57826;SDS011;43656;57.746;11.780;2023-12-22T14:30:34;1.77;;;0.63;;
57826;SDS011;43656;57.746;11.780;2023-12-22T14:32:59;1.88;;;1.33;;
57826;SDS011;43656;57.746;11.780;2023-12-22T14:35:25;2.50;;;1.30;;
57826;SDS011;43656;57.746;11.780;2023-12-22T14:37:50;1.90;;;1.15;;
57826;SDS011;43656;57.746;11.780;2023-12-22T14:40:16;1.05;;;0.73;;
57826;SDS011;43656;57.746;11.780;2023-12-22T14:42:41;1.10;;;0.40;;
57826;SDS011;43656;57.746;11.780;2023-12-22T14:45:08;3.47;;;0.98;;